• Join FlightAware (Why Join?)
  • Login
  • US Flag 
11:50AM EDT


 

Airport Tracker/Info


-or-


 

Live Flight TrackerFlight Track Log ✈ SWA862 ✈ 20-Apr-2013 ✈ KIND - KPHX

Flight Track Log - Related Links

Times and Time Zones

All times are in EDT time to prevent confusion due to time zone crossing. See the SWA862 flight status page for this flight to view local times or setup timezone preferences in your user account.

Time Position Orientation Groundspeed Altitude Reporting Facility
EDT Latitude Longitude Course Direction KTS MPH feet Rate Location/Type
07:48AM 39.7000 -86.3333 218° Southwest 174 200 1,900  Level Indianapolis TRACON
07:48AM 39.6667 -86.3667 218° Southwest 207 238 3,200 2,040 Climbing Indianapolis TRACON
07:49AM 39.6567 -86.4375 260° West 237 273 5,400 2,700 Climbing Indianapolis Center
07:50AM 39.6383 -86.5167 253° West 232 267 8,400 2,640 Climbing Indianapolis Center
07:51AM 39.6214 -86.6019 256° West 235 270 10,800 1,680 Climbing Indianapolis Center
07:52AM 39.6011 -86.6981 255° West 249 287 11,900 1,620 Climbing Indianapolis Center
07:53AM 39.5775 -86.8150 255° West 288 331 14,100 1,920 Climbing Indianapolis Center
07:54AM 39.5767 -86.9400 270° West 320 368 15,900 1,800 Climbing Indianapolis Center
07:55AM 39.5797 -87.0647 272° West 335 386 17,800 1,620 Climbing Indianapolis Center
07:56AM 39.5814 -87.1889 271° West 342 394 19,200 1,320 Climbing Indianapolis Center
07:57AM 39.5822 -87.3189 271° West 351 404 20,600 1,320 Climbing Indianapolis Center
07:58AM 39.5833 -87.4517 271° West 361 415 22,000 1,320 Climbing Indianapolis Center
07:59AM 39.5853 -87.5892 271° West 370 426 23,300 1,500 Climbing Indianapolis Center
08:00AM 39.5858 -87.7250 270° West 376 433 25,100 1,680 Climbing Indianapolis Center
08:01AM 39.5864 -87.8567 270° West 371 427 26,800 1,500 Climbing Indianapolis Center
08:02AM 39.5867 -87.9628 270° West 363 418 27,900 1,260 Climbing Kansas City Center
08:03AM 39.5869 -88.0919 270° West 359 413 29,100 1,200 Climbing Kansas City Center
08:04AM 39.5864 -88.2211 270° West 359 413 30,400 1,140 Climbing Kansas City Center
08:05AM 39.5869 -88.3475 270° West 355 409 31,400 840 Climbing Kansas City Center
08:06AM 39.5836 -88.4758 268° West 354 407 32,100 840 Climbing Kansas City Center
08:07AM 39.5814 -88.6192 269° West 360 414 33,200 900 Climbing Kansas City Center
08:08AM 39.5772 -88.7478 268° West 359 413 34,000 360 Climbing Kansas City Center
08:09AM 39.5747 -88.8722 269° West 350 403 34,000  Level Kansas City Center
08:10AM 39.5717 -88.9967 268° West 348 400 34,000  Level Kansas City Center
08:11AM 39.5683 -89.1219 268° West 347 399 34,000  Level Kansas City Center
08:12AM 39.5653 -89.2497 268° West 349 402 34,000  Level Kansas City Center
08:13AM 39.5611 -89.3747 268° West 351 404 34,000  Level Kansas City Center
08:14AM 39.5583 -89.5008 268° West 352 405 34,000  Level Kansas City Center
08:15AM 39.5544 -89.6267 268° West 351 404 34,000  Level Kansas City Center
08:16AM 39.5403 -89.7528 262° West 356 410 34,000  Level Kansas City Center
08:17AM 39.5236 -89.8778 260° West 354 407 34,000  Level Kansas City Center
08:18AM 39.5075 -90.0008 260° West 351 404 34,000  Level Kansas City Center
08:19AM 39.4881 -90.1492 260° West 351 404 34,000  Level Kansas City Center
08:20AM 39.4714 -90.2731 260° West 351 404 34,000  Level Kansas City Center
08:22AM 39.4550 -90.3950 260° West 349 402 34,000  Level Kansas City Center
08:23AM 39.4381 -90.5186 260° West 349 402 34,000  Level Kansas City Center
08:24AM 39.4214 -90.6403 260° West 348 400 34,000  Level Kansas City Center
08:25AM 39.4036 -90.7614 259° West 347 399 34,000  Level Kansas City Center
08:26AM 39.3869 -90.8831 260° West 345 397 34,000  Level Kansas City Center
08:27AM 39.3692 -91.0047 259° West 347 399 34,000  Level Kansas City Center
08:28AM 39.3514 -91.1272 259° West 348 400 34,000  Level Kansas City Center
08:29AM 39.3339 -91.2500 260° West 349 402 34,000  Level Kansas City Center
08:30AM 39.3158 -91.3731 259° West 350 403 34,000  Level Kansas City Center
08:31AM 39.2950 -91.5203 260° West 350 403 34,000  Level Kansas City Center
08:32AM 39.2767 -91.6431 259° West 350 403 34,000  Level Kansas City Center
08:33AM 39.2594 -91.7617 259° West 352 405 34,000  Level Kansas City Center
08:34AM 39.2406 -91.8903 259° West 351 404 34,000  Level Kansas City Center
08:35AM 39.2225 -92.0114 259° West 347 399 34,000  Level Kansas City Center
08:36AM 39.2033 -92.1400 259° West 355 409 34,000  Level Kansas City Center
08:37AM 39.1842 -92.2664 259° West 359 413 34,000  Level Kansas City Center
08:38AM 39.1650 -92.3911 259° West 357 411 34,000  Level Kansas City Center
08:39AM 39.1453 -92.5156 258° West 356 410 34,000  Level Kansas City Center
08:40AM 39.1247 -92.6414 258° West 358 412 34,000  Level Kansas City Center
08:41AM 39.1028 -92.7831 259° West 358 412 34,000  Level Kansas City Center
08:42AM 39.0836 -92.9064 259° West 356 410 34,000  Level Kansas City Center
08:43AM 39.0633 -93.0308 258° West 357 411 34,000  Level Kansas City Center
08:44AM 39.0422 -93.1547 258° West 356 410 34,000  Level Kansas City Center
08:45AM 39.0231 -93.2800 259° West 358 412 34,000  Level Kansas City Center
08:46AM 39.0006 -93.4158 258° West 356 410 34,000  Level Kansas City Center
08:47AM 38.9792 -93.5422 258° West 359 413 34,000  Level Kansas City Center
08:48AM 38.9578 -93.6683 258° West 361 415 34,000  Level Kansas City Center
08:49AM 38.9386 -93.7928 259° West 356 410 34,000  Level Kansas City Center
08:50AM 38.9186 -93.9133 258° West 359 413 34,000  Level Kansas City Center
08:51AM 38.8983 -94.0333 258° West 358 412 34,000  Level Kansas City Center
08:52AM 38.8744 -94.1731 258° West 359 413 34,000  Level Kansas City Center
08:53AM 38.8544 -94.2908 258° West 354 407 34,000  Level Kansas City Center
08:54AM 38.8292 -94.4311 257° West 359 413 34,000  Level Kansas City Center
08:55AM 38.8097 -94.5494 258° West 356 410 34,000  Level Kansas City Center
08:56AM 38.7889 -94.6683 257° West 357 411 34,000  Level Kansas City Center
08:57AM 38.7672 -94.7875 257° West 357 411 34,000  Level Kansas City Center
08:58AM 38.7433 -94.9275 258° West 358 412 34,000  Level Kansas City Center
08:59AM 38.7214 -95.0469 257° West 358 412 34,000  Level Kansas City Center
09:00AM 38.6958 -95.1867 257° West 359 413 34,000  Level Kansas City Center
09:01AM 38.6742 -95.3075 257° West 361 415 34,000  Level Kansas City Center
09:02AM 38.6517 -95.4281 257° West 363 418 34,000  Level Kansas City Center
09:03AM 38.6261 -95.5692 257° West 362 417 34,000  Level Kansas City Center
09:04AM 38.6044 -95.6906 257° West 366 421 34,000  Level Kansas City Center
09:05AM 38.5822 -95.8119 257° West 366 421 34,000  Level Kansas City Center
09:06AM 38.5550 -95.9525 256° West 366 421 34,000  Level Kansas City Center
09:07AM 38.5339 -96.0758 258° West 367 422 34,000  Level Kansas City Center
09:08AM 38.5100 -96.1958 256° West 365 420 34,000  Level Kansas City Center
09:09AM 38.4828 -96.3372 256° West 368 423 34,000  Level Kansas City Center
09:10AM 38.4594 -96.4592 256° West 369 425 34,000  Level Kansas City Center
09:11AM 38.4322 -96.5939 256° West 374 430 34,000  Level Kansas City Center
09:12AM 38.4078 -96.7225 256° West 373 429 34,000  Level Kansas City Center
09:13AM 38.3825 -96.8506 256° West 374 430 34,000  Level Kansas City Center
09:14AM 38.3572 -96.9789 256° West 374 430 34,000  Level Kansas City Center
09:15AM 38.3328 -97.1075 256° West 374 430 34,000  Level Kansas City Center
09:16AM 38.3067 -97.2361 256° West 376 433 34,000  Level Kansas City Center
09:17AM 38.2811 -97.3639 256° West 375 432 34,000  Level Kansas City Center
09:18AM 38.2553 -97.4900 255° West 371 427 34,000  Level Kansas City Center
09:19AM 38.2289 -97.6175 255° West 373 429 34,000  Level Kansas City Center
09:20AM 38.2031 -97.7439 255° West 373 429 34,000  Level Kansas City Center
09:21AM 38.1717 -97.8961 255° West 375 432 34,000  Level Kansas City Center
09:22AM 38.1489 -98.0050 255° West 375 432 34,000  Level Kansas City Center
09:23AM 38.1164 -98.1586 255° West 374 430 34,000  Level Kansas City Center
09:24AM 38.0928 -98.2753 256° West 376 433 34,000  Level Kansas City Center
09:26AM 38.0658 -98.4025 255° West 375 432 34,000  Level Kansas City Center
09:27AM 38.0386 -98.5308 255° West 378 435 34,000  Level Kansas City Center
09:28AM 38.0103 -98.6608 255° West 382 440 34,000  Level Kansas City Center
09:29AM 37.9839 -98.7886 255° West 378 435 34,000  Level Kansas City Center
09:30AM 37.9564 -98.9175 255° West 378 435 34,000  Level Kansas City Center
09:31AM 37.9214 -99.0725 254° West 381 438 34,000  Level Kansas City Center
09:32AM 37.8936 -99.2006 255° West 379 436 34,000  Level Kansas City Center
09:33AM 37.8656 -99.3286 255° West 378 435 34,000  Level Kansas City Center
09:34AM 37.8367 -99.4561 254° West 378 435 34,000  Level Kansas City Center
09:35AM 37.8061 -99.5936 254° West 377 434 34,000  Level Kansas City Center
09:36AM 37.7797 -99.7161 255° West 377 434 34,000  Level Kansas City Center
09:37AM 37.7522 -99.8375 254° West 376 433 34,000  Level Kansas City Center
09:38AM 37.7203 -99.9792 254° West 375 432 34,000  Level Kansas City Center
09:39AM 37.6931 -100.1003 254° West 374 430 34,000  Level Kansas City Center
09:40AM 37.6600 -100.2406 253° West 373 429 34,000  Level Kansas City Center
09:41AM 37.6325 -100.3606 254° West 373 429 34,000  Level Kansas City Center
09:42AM 37.6042 -100.4831 254° West 372 428 34,000  Level Kansas City Center
09:43AM 37.5753 -100.6089 254° West 373 429 34,000  Level Kansas City Center
09:44AM 37.5453 -100.7342 253° West 373 429 34,000  Level Kansas City Center
09:45AM 37.5161 -100.8606 254° West 375 432 34,000 300 Level Kansas City Center
09:46AM 37.4814 -101.0083 254° West 375 432 34,700 780 Climbing Kansas City Center
09:47AM 37.4533 -101.1272 253° West 370 426 35,600 600 Climbing Kansas City Center
09:48AM 37.4250 -101.2444 253° West 367 422 36,000 180 Climbing Kansas City Center
09:49AM 37.3925 -101.3808 253° West 365 420 36,000  Level Kansas City Center
09:50AM 37.3642 -101.4986 253° West 365 420 36,000  Level Kansas City Center
09:51AM 37.3306 -101.6353 253° West 366 421 36,000  Level Kansas City Center
09:52AM 37.3022 -101.7519 253° West 367 422 36,000  Level Kansas City Center
09:53AM 37.2739 -101.8708 253° West 368 423 36,000  Level Kansas City Center
09:54AM 37.2419 -102.0092 254° West 368 423 36,000  Level Albuquerque Center
09:55AM 37.2131 -102.1261 253° West 368 423 36,000  Level Albuquerque Center
09:56AM 37.1808 -102.2550 253° West 369 425 36,000  Level Albuquerque Center
09:57AM 37.1506 -102.3725 252° West 369 425 36,000  Level Albuquerque Center
09:58AM 37.1203 -102.4972 253° West 369 425 36,000  Level Albuquerque Center
09:59AM 37.0872 -102.6267 252° West 369 425 36,000  Level Albuquerque Center
10:00AM 37.0572 -102.7450 252° West 371 427 36,000  Level Albuquerque Center
10:01AM 37.0264 -102.8639 252° West 374 430 36,000  Level Albuquerque Center
10:02AM 36.9903 -103.0050 252° West 380 437 36,000  Level Albuquerque Center
10:03AM 36.9592 -103.1253 252° West 378 435 36,000  Level Albuquerque Center
10:04AM 36.9278 -103.2467 252° West 381 438 36,000  Level Albuquerque Center
10:05AM 36.8906 -103.3878 252° West 382 440 36,000  Level Albuquerque Center
10:06AM 36.8583 -103.5117 252° West 387 445 36,000  Level Albuquerque Center
10:07AM 36.8267 -103.6347 252° West 387 445 36,000  Level Albuquerque Center
10:08AM 36.7875 -103.7792 251° West 391 450 36,000  Level Albuquerque Center
10:09AM 36.7556 -103.9008 252° West 386 444 36,000  Level Albuquerque Center
10:10AM 36.7228 -104.0236 252° West 388 447 36,000  Level Albuquerque Center
10:11AM 36.6850 -104.1633 251° West 382 440 36,000  Level Albuquerque Center
10:12AM 36.6514 -104.2839 251° West 382 440 36,000  Level Albuquerque Center
10:13AM 36.6186 -104.4064 252° West 377 434 36,000  Level Albuquerque Center
10:14AM 36.5850 -104.5292 251° West 374 430 36,000  Level Albuquerque Center
10:15AM 36.5506 -104.6533 251° West 377 434 36,000  Level Albuquerque Center
10:16AM 36.5172 -104.7764 251° West 375 432 36,000  Level Albuquerque Center
10:17AM 36.4831 -104.8981 251° West 372 428 36,000  Level Albuquerque Center
10:18AM 36.4425 -105.0178 247° West 373 429 36,000  Level Albuquerque Center
10:19AM 36.3947 -105.1581 247° West 376 433 36,000  Level Albuquerque Center
10:20AM 36.3556 -105.2753 247° West 369 425 36,000  Level Albuquerque Center
10:22AM 36.3150 -105.3950 247° West 372 428 36,000  Level Albuquerque Center
10:23AM 36.2739 -105.5153 247° West 375 432 36,000  Level Albuquerque Center
10:24AM 36.2369 -105.6239 247° West 378 435 36,000  Level Albuquerque Center
10:25AM 36.1972 -105.7450 248° West 380 437 36,000  Level Albuquerque Center
10:26AM 36.1553 -105.8658 247° West 382 440 36,000  Level Albuquerque Center
10:27AM 36.1147 -105.9847 247° West 379 436 36,000  Level Albuquerque Center
10:28AM 36.0650 -106.1264 247° West 375 432 36,000  Level Albuquerque Center
10:29AM 36.0269 -106.2458 249° West 376 433 36,000  Level Albuquerque Center
10:30AM 35.9844 -106.3592 245° Southwest 368 423 36,000  Level Albuquerque Center
10:31AM 35.9444 -106.4758 247° West 369 425 36,000  Level Albuquerque Center
10:32AM 35.9025 -106.5961 247° West 369 425 36,000  Level Albuquerque Center
10:33AM 35.8575 -106.7228 246° West 363 418 36,000  Level Albuquerque Center
10:34AM 35.8194 -106.8306 246° West 360 414 36,000  Level Albuquerque Center
10:35AM 35.7814 -106.9386 247° West 359 413 36,000  Level Albuquerque Center
10:36AM 35.7378 -107.0656 247° West 360 414 36,000  Level Albuquerque Center
10:37AM 35.6981 -107.1736 246° West 361 415 36,000  Level Albuquerque Center
10:38AM 35.6594 -107.2817 246° West 360 414 36,000  Level Albuquerque Center
10:39AM 35.6139 -107.4083 246° West 361 415 36,000  Level Albuquerque Center
10:40AM 35.5747 -107.5158 246° West 361 415 36,000  Level Albuquerque Center
10:41AM 35.5294 -107.6422 246° West 361 415 36,000  Level Albuquerque Center
10:42AM 35.4903 -107.7500 246° West 361 415 36,000  Level Albuquerque Center
10:43AM 35.4447 -107.8753 246° West 360 414 36,000  Level Albuquerque Center
10:44AM 35.4283 -107.9875 260° West 354 407 36,000  Level Albuquerque Center
10:45AM 35.4231 -108.1008 267° West 348 400 36,000  Level Albuquerque Center
10:46AM 35.4167 -108.2331 267° West 347 399 36,000  Level Albuquerque Center
10:47AM 35.4119 -108.3464 267° West 347 399 36,000  Level Albuquerque Center
10:48AM 35.4061 -108.4797 267° West 349 402 36,000  Level Albuquerque Center
10:49AM 35.4008 -108.5931 267° West 347 399 36,000  Level Albuquerque Center
10:50AM 35.3658 -108.7025 249° West 363 418 36,000  Level Albuquerque Center
10:51AM 35.2978 -108.8228 235° Southwest 381 438 36,000  Level Albuquerque Center
10:52AM 35.2386 -108.9269 235° Southwest 385 443 36,000  Level Albuquerque Center
10:53AM 35.1706 -109.0508 236° Southwest 389 448 36,000  Level Albuquerque Center
10:54AM 35.1114 -109.1564 236° Southwest 391 450 36,000  Level Albuquerque Center
10:55AM 35.0517 -109.2597 235° Southwest 389 448 36,000  Level Albuquerque Center
10:56AM 34.9839 -109.3797 235° Southwest 385 443 36,000  Level Albuquerque Center
10:57AM 34.9261 -109.4817 235° Southwest 382 440 36,000  Level Albuquerque Center
10:58AM 34.8572 -109.5972 234° Southwest 378 435 36,000  Level Albuquerque Center
10:59AM 34.7994 -109.6978 235° Southwest 378 435 36,000  Level Albuquerque Center
11:00AM 34.7417 -109.7975 235° Southwest 377 434 36,000  Level Albuquerque Center
11:02AM 34.6847 -109.9161 240° Southwest 368 423 36,000  Level Albuquerque Center
11:03AM 34.6472 -110.0228 247° West 360 414 36,000  Level Albuquerque Center
11:04AM 34.6039 -110.1514 248° West 365 420 36,000  Level Albuquerque Center
11:05AM 34.5653 -110.2558 246° West 359 413 36,000 -780 Level Albuquerque Center
11:06AM 34.5156 -110.3694 242° Southwest 345 397 34,500 -1,500 Descending Albuquerque Center
11:07AM 34.4839 -110.4644 248° West 357 411 33,000 -840 Descending Albuquerque Center
11:08AM 34.4386 -110.5922 247° West 349 402 32,800 -1,500 Descending Albuquerque Center
11:09AM 34.3917 -110.7044 243° Southwest 368 423 30,000 -2,340 Descending Albuquerque Center
11:10AM 34.3397 -110.8164 241° Southwest 380 437 28,000 -1,500 Descending Albuquerque Center
11:11AM 34.2683 -110.9075 227° Southwest 373 429 26,900 -1,560 Descending Albuquerque Center
11:12AM 34.1992 -110.9975 227° Southwest 368 423 24,800 -2,100 Descending Albuquerque Center
11:13AM 34.1292 -111.0872 227° Southwest 366 421 22,600 -2,220 Descending Albuquerque Center
11:14AM 34.0486 -111.1903 227° Southwest 357 411 20,300 -2,040 Descending Albuquerque Center
11:15AM 33.9853 -111.2717 227° Southwest 341 392 18,400 -1,860 Descending Albuquerque Center
11:16AM 33.9247 -111.3492 227° Southwest 321 369 16,500 -1,500 Descending Albuquerque Center
11:17AM 33.8683 -111.4272 229° Southwest 309 356 15,400 -1,320 Descending Albuquerque Center
11:18AM 33.8264 -111.5103 239° Southwest 289 333 13,800 -1,560 Descending Albuquerque Center
11:19AM 33.7839 -111.5908 238° Southwest 284 327 12,200 -1,620 Descending Albuquerque Center
11:20AM 33.7244 -111.6653 226° Southwest 313 360 10,500 -1,320 Descending Albuquerque Center
11:21AM 33.6575 -111.7275 218° Southwest 303 349 9,500 -780 Descending Albuquerque Center
11:22AM 33.5903 -111.8086 225° Southwest 286 329 9,000 -300 Descending Albuquerque Center
11:23AM 33.5497 -111.8864 238° Southwest 276 318 8,900 -240 Descending Albuquerque Center
11:24AM 33.5206 -111.9628 245° Southwest 253 291 8,600 -780 Descending Albuquerque Center
11:25AM 33.5181 -112.0417 268° West 238 274 7,300 -840 Descending Albuquerque Center
11:26AM 33.5178 -112.1142 270° West 219 252 6,900 -780 Descending Albuquerque Center
11:27AM 33.5158 -112.1739 268° West 184 212 5,800 -1,380 Descending Albuquerque Center
11:28AM 33.4714 -112.1956 202° Southwest 205 236 4,100 -1,380 Descending Albuquerque Center
11:29AM 33.4408 -112.1439 125° Southeast 178 205 3,000 -960 Descending Albuquerque Center
11:30AM 33.4408 -112.0928 90° East 159 183 2,200 -780 Descending Albuquerque Center
11:31AM 33.4411 -112.0458 90° East 145 167 1,400 -780 Descending Albuquerque Center